createdAt,value
2023-11-10T00:02:24.271Z,9.46
2023-11-10T00:04:51.417Z,9.42
2023-11-10T00:07:18.622Z,9.36
2023-11-10T00:09:48.941Z,9.41
2023-11-10T00:12:16.198Z,9.08
2023-11-10T00:14:43.157Z,8.90
2023-11-10T00:17:11.131Z,8.92
2023-11-10T00:19:38.731Z,8.45
2023-11-10T00:22:06.139Z,8.78
2023-11-10T00:24:38.578Z,8.67
2023-11-10T00:27:05.604Z,8.68
2023-11-10T00:29:32.122Z,8.71
2023-11-10T00:31:58.573Z,8.92
2023-11-10T00:34:25.150Z,8.58
2023-11-10T00:36:51.743Z,8.63
2023-11-10T00:39:20.951Z,8.89
2023-11-10T00:41:47.820Z,8.99
2023-11-10T00:44:14.373Z,8.98
2023-11-10T00:46:40.831Z,9.02
2023-11-10T00:49:07.357Z,9.07
2023-11-10T00:51:33.822Z,9.14
2023-11-10T00:54:01.322Z,8.99
2023-11-10T00:56:27.887Z,8.47
2023-11-10T00:58:54.572Z,8.73
2023-11-10T01:01:21.199Z,8.82
2023-11-10T01:03:47.933Z,8.86
2023-11-10T01:06:15.714Z,8.90
2023-11-10T01:08:42.380Z,8.98
2023-11-10T01:11:08.781Z,9.05
2023-11-10T01:13:38.581Z,8.62
2023-11-10T01:16:05.997Z,8.40
2023-11-10T01:18:35.100Z,8.05
2023-11-10T01:21:02.540Z,8.19
2023-11-10T01:23:29.216Z,8.44
2023-11-10T01:25:55.784Z,8.60
2023-11-10T01:28:22.279Z,8.61
2023-11-10T01:30:48.794Z,8.43
2023-11-10T01:33:15.403Z,8.54
2023-11-10T01:35:42.020Z,8.47
2023-11-10T01:38:09.280Z,8.25
2023-11-10T01:40:42.661Z,8.46
2023-11-10T01:43:10.977Z,8.61
2023-11-10T01:45:37.810Z,8.70
2023-11-10T01:48:06.118Z,8.72
2023-11-10T01:50:33.774Z,8.81
2023-11-10T01:53:02.357Z,8.81
2023-11-10T01:55:29.369Z,8.81
2023-11-10T01:57:56.850Z,8.48
2023-11-10T02:00:31.399Z,8.21
2023-11-10T02:03:05.671Z,7.91
2023-11-10T02:05:35.924Z,7.45
2023-11-10T02:08:07.356Z,7.16
2023-11-10T02:10:35.340Z,6.76
2023-11-10T02:13:02.007Z,7.20
2023-11-10T02:15:31.418Z,7.47
2023-11-10T02:17:58.095Z,7.66
2023-11-10T02:20:25.020Z,7.74
2023-11-10T02:22:52.243Z,7.89
2023-11-10T02:25:20.144Z,8.01
2023-11-10T02:27:47.485Z,8.10
2023-11-10T02:30:15.129Z,8.19
2023-11-10T02:32:44.459Z,8.30
2023-11-10T02:35:11.487Z,8.44
2023-11-10T02:37:38.388Z,7.86
2023-11-10T02:40:06.862Z,7.11
2023-11-10T02:42:34.938Z,7.42
2023-11-10T02:45:01.918Z,7.77
2023-11-10T02:47:28.482Z,7.97
2023-11-10T02:49:54.936Z,8.06
2023-11-10T02:52:21.492Z,8.15
2023-11-10T02:54:48.060Z,7.90
2023-11-10T02:57:14.609Z,7.46
2023-11-10T02:59:41.039Z,7.58
2023-11-10T03:02:07.514Z,7.56
2023-11-10T03:04:34.157Z,7.82
2023-11-10T03:07:00.761Z,7.98
2023-11-10T03:09:27.631Z,8.07
2023-11-10T03:11:54.797Z,8.13
2023-11-10T03:14:22.494Z,8.09
2023-11-10T03:16:49.467Z,7.94
2023-11-10T03:19:15.979Z,8.13
2023-11-10T03:21:42.542Z,7.72
2023-11-10T03:24:09.136Z,7.83
2023-11-10T03:26:36.272Z,7.91
2023-11-10T03:29:04.138Z,8.09
2023-11-10T03:31:31.699Z,8.25
2023-11-10T03:33:58.306Z,8.28
2023-11-10T03:36:24.724Z,8.33
2023-11-10T03:38:51.571Z,8.39
2023-11-10T03:41:19.069Z,8.46
2023-11-10T03:43:46.065Z,8.52
2023-11-10T03:46:12.671Z,8.56
2023-11-10T03:48:39.319Z,8.61
2023-11-10T03:51:13.028Z,8.46
2023-11-10T03:53:43.154Z,8.38
2023-11-10T03:56:09.861Z,8.43
2023-11-10T03:58:36.708Z,8.50
2023-11-10T04:01:08.644Z,8.53
2023-11-10T04:03:35.411Z,8.57
2023-11-10T04:06:01.987Z,8.27
2023-11-10T04:08:28.508Z,8.39
2023-11-10T04:10:55.009Z,8.04
2023-11-10T04:13:21.592Z,7.99
2023-11-10T04:15:49.356Z,7.51
2023-11-10T04:18:17.639Z,6.99
2023-11-10T04:20:47.321Z,7.23
2023-11-10T04:23:16.810Z,7.59
2023-11-10T04:25:43.683Z,7.80
2023-11-10T04:28:13.319Z,7.96
2023-11-10T04:30:40.751Z,7.89
2023-11-10T04:33:07.826Z,8.05
2023-11-10T04:35:34.442Z,8.13
2023-11-10T04:38:02.301Z,7.80
2023-11-10T04:40:29.357Z,7.94
2023-11-10T04:42:57.153Z,7.79
2023-11-10T04:45:26.047Z,7.91
2023-11-10T04:47:54.748Z,8.15
2023-11-10T04:50:21.594Z,8.32
2023-11-10T04:52:49.557Z,8.20
2023-11-10T04:55:16.486Z,8.27
2023-11-10T04:57:43.255Z,8.45
2023-11-10T05:00:10.488Z,8.48
2023-11-10T05:02:37.020Z,8.36
2023-11-10T05:05:04.544Z,8.39
2023-11-10T05:07:31.045Z,8.09
2023-11-10T05:09:58.588Z,8.18
2023-11-10T05:12:25.559Z,7.84
2023-11-10T05:14:52.064Z,7.44
2023-11-10T05:17:18.564Z,7.60
2023-11-10T05:19:45.175Z,7.75
2023-11-10T05:22:12.499Z,7.90
2023-11-10T05:24:39.441Z,7.60
2023-11-10T05:27:06.648Z,7.94
2023-11-10T05:29:33.224Z,8.22
2023-11-10T05:32:00.707Z,8.35
2023-11-10T05:34:27.351Z,8.46
2023-11-10T05:36:53.781Z,8.28
2023-11-10T05:39:20.435Z,8.45
2023-11-10T05:41:47.025Z,8.53
2023-11-10T05:44:13.571Z,8.31
2023-11-10T05:46:40.283Z,8.40
2023-11-10T05:49:07.490Z,8.44
2023-11-10T05:51:34.491Z,8.19
2023-11-10T05:54:01.122Z,8.09
2023-11-10T05:56:27.525Z,8.09
2023-11-10T05:58:54.012Z,8.23
2023-11-10T06:01:24.837Z,8.36
2023-11-10T06:03:52.104Z,8.28
2023-11-10T06:06:18.975Z,7.75
2023-11-10T06:08:46.141Z,7.76
2023-11-10T06:11:22.954Z,7.35
2023-11-10T06:13:52.709Z,7.10
2023-11-10T06:16:20.360Z,7.06
2023-11-10T06:18:47.139Z,6.98
2023-11-10T06:21:14.029Z,7.03
2023-11-10T06:23:41.056Z,7.44
2023-11-10T06:26:08.026Z,7.60
2023-11-10T06:28:37.437Z,7.28
2023-11-10T06:31:05.687Z,7.45
2023-11-10T06:33:33.086Z,7.59
2023-11-10T06:36:00.048Z,7.32
2023-11-10T06:38:27.032Z,7.18
2023-11-10T06:40:54.652Z,7.04
2023-11-10T06:43:21.629Z,6.87
2023-11-10T06:45:48.902Z,7.01
2023-11-10T06:48:18.660Z,6.96
2023-11-10T06:50:45.827Z,6.99
2023-11-10T06:53:12.538Z,7.22
2023-11-10T06:55:39.974Z,7.28
2023-11-10T06:58:08.185Z,7.16
2023-11-10T07:00:34.900Z,7.01
2023-11-10T07:03:01.892Z,7.27
2023-11-10T07:05:28.489Z,7.38
2023-11-10T07:07:55.559Z,7.15
2023-11-10T07:10:22.315Z,7.00
2023-11-10T07:12:48.879Z,7.12
2023-11-10T07:15:15.422Z,6.98
2023-11-10T07:17:44.762Z,6.86
2023-11-10T07:20:11.789Z,6.88
2023-11-10T07:22:41.141Z,7.01
2023-11-10T07:25:08.349Z,7.27
2023-11-10T07:27:35.527Z,7.37
2023-11-10T07:30:02.204Z,7.34
2023-11-10T07:32:30.604Z,7.70
2023-11-10T07:35:00.132Z,7.78
2023-11-10T07:37:28.088Z,7.74
2023-11-10T07:39:54.547Z,7.89
2023-11-10T07:42:22.435Z,8.02
2023-11-10T07:44:49.008Z,8.18
2023-11-10T07:47:15.500Z,8.20
2023-11-10T07:49:42.601Z,7.60
2023-11-10T07:52:10.184Z,7.47
2023-11-10T07:54:36.836Z,7.28
2023-11-10T07:57:03.653Z,7.62
2023-11-10T07:59:30.151Z,7.75
2023-11-10T08:01:56.669Z,8.02
2023-11-10T08:04:23.296Z,8.11
2023-11-10T08:06:50.063Z,8.23
2023-11-10T08:09:16.825Z,8.26
2023-11-10T08:11:52.416Z,8.53
2023-11-10T08:14:21.739Z,8.40
2023-11-10T08:16:50.114Z,8.65
2023-11-10T08:19:18.704Z,8.56
2023-11-10T08:21:46.205Z,8.27
2023-11-10T08:24:12.745Z,8.16
2023-11-10T08:26:39.897Z,8.15
2023-11-10T08:29:10.775Z,8.07
2023-11-10T08:31:37.553Z,8.42
2023-11-10T08:34:04.304Z,8.33
2023-11-10T08:36:36.399Z,8.40
2023-11-10T08:39:02.991Z,8.68
2023-11-10T08:41:29.682Z,8.87
2023-11-10T08:43:56.144Z,8.73
2023-11-10T08:46:23.261Z,8.81
2023-11-10T08:48:49.924Z,8.95
2023-11-10T08:51:16.938Z,9.07
2023-11-10T08:53:46.381Z,9.22
2023-11-10T08:56:13.500Z,9.27
2023-11-10T08:58:40.838Z,9.49
2023-11-10T09:01:08.739Z,9.63
2023-11-10T09:03:35.375Z,9.71
2023-11-10T09:06:01.964Z,9.82
2023-11-10T09:08:28.384Z,9.87
2023-11-10T09:10:54.969Z,9.82
2023-11-10T09:13:21.454Z,9.81
2023-11-10T09:15:56.808Z,9.92
2023-11-10T09:18:31.620Z,9.64
2023-11-10T09:20:58.170Z,9.80
2023-11-10T09:23:24.554Z,9.92
2023-11-10T09:25:52.146Z,9.95
2023-11-10T09:28:19.189Z,9.57
2023-11-10T09:30:45.698Z,9.73
2023-11-10T09:33:12.281Z,9.98
2023-11-10T09:35:39.091Z,10.10
2023-11-10T09:38:05.629Z,10.13
2023-11-10T09:40:32.034Z,10.22
2023-11-10T09:43:00.429Z,10.23
2023-11-10T09:45:28.323Z,10.30
2023-11-10T09:47:55.739Z,10.35
2023-11-10T09:50:23.156Z,10.35
2023-11-10T09:52:51.981Z,10.48
2023-11-10T09:55:18.870Z,10.56
2023-11-10T09:57:50.541Z,10.64
2023-11-10T10:00:19.892Z,10.59
2023-11-10T10:02:46.532Z,10.58
2023-11-10T10:05:13.129Z,10.51
2023-11-10T10:07:40.239Z,10.46
2023-11-10T10:10:10.960Z,10.46
2023-11-10T10:12:38.634Z,10.38
2023-11-10T10:15:05.840Z,10.41
2023-11-10T10:17:38.036Z,10.32
2023-11-10T10:20:06.090Z,10.34
2023-11-10T10:22:33.897Z,10.22
2023-11-10T10:25:00.572Z,10.41
2023-11-10T10:27:27.169Z,10.59
2023-11-10T10:29:53.760Z,10.71
2023-11-10T10:32:20.767Z,10.66
2023-11-10T10:34:47.332Z,10.60
2023-11-10T10:37:13.926Z,10.68
2023-11-10T10:39:41.812Z,10.46
2023-11-10T10:42:15.420Z,10.58
2023-11-10T10:44:45.498Z,10.72
2023-11-10T10:47:13.456Z,10.82
2023-11-10T10:49:42.015Z,10.81
2023-11-10T10:52:09.780Z,10.56
2023-11-10T10:54:38.184Z,10.49
2023-11-10T10:57:06.125Z,10.56
2023-11-10T10:59:37.128Z,10.47
2023-11-10T11:02:04.688Z,10.55
2023-11-10T11:04:45.303Z,10.60
2023-11-10T11:07:30.721Z,10.64
2023-11-10T11:10:09.870Z,10.64
2023-11-10T11:12:55.246Z,10.49
2023-11-10T11:15:47.387Z,10.62
2023-11-10T11:18:19.965Z,10.48
2023-11-10T11:20:48.575Z,10.58
2023-11-10T11:23:16.208Z,10.69
2023-11-10T11:25:42.814Z,10.81
2023-11-10T11:28:09.734Z,10.84
2023-11-10T11:30:38.097Z,10.82
2023-11-10T11:33:14.140Z,10.50
2023-11-10T11:35:49.235Z,10.22
2023-11-10T11:38:33.377Z,10.06
2023-11-10T11:41:04.444Z,10.26
2023-11-10T11:43:34.187Z,10.41
2023-11-10T11:46:02.924Z,10.30
2023-11-10T11:48:31.354Z,9.89
2023-11-10T11:50:58.110Z,9.84
2023-11-10T11:53:24.670Z,9.61
2023-11-10T11:55:56.574Z,9.72
2023-11-10T11:58:23.725Z,9.94
2023-11-10T12:00:51.266Z,10.07
2023-11-10T12:03:18.192Z,10.25
2023-11-10T12:05:45.225Z,10.29
2023-11-10T12:08:17.211Z,10.27
2023-11-10T12:10:46.925Z,10.18
2023-11-10T12:13:18.131Z,10.28
2023-11-10T12:15:45.058Z,10.41
2023-11-10T12:18:12.506Z,10.47
2023-11-10T12:20:39.028Z,10.60
2023-11-10T12:23:05.582Z,10.20
2023-11-10T12:25:39.078Z,10.33
2023-11-10T12:28:11.173Z,10.46
2023-11-10T12:30:37.805Z,10.55
2023-11-10T12:33:04.861Z,10.57
2023-11-10T12:35:31.513Z,10.55
2023-11-10T12:37:58.168Z,10.53
2023-11-10T12:40:26.143Z,10.41
2023-11-10T12:42:52.771Z,9.81
2023-11-10T12:45:20.765Z,9.54
2023-11-10T12:48:00.387Z,9.61
2023-11-10T12:50:32.428Z,9.71
2023-11-10T12:52:58.924Z,9.77
2023-11-10T12:55:25.402Z,9.81
2023-11-10T12:57:53.514Z,10.03
2023-11-10T13:00:20.292Z,10.15
2023-11-10T13:02:47.176Z,10.27
2023-11-10T13:05:18.934Z,10.37
2023-11-10T13:07:45.449Z,10.45
2023-11-10T13:10:14.910Z,10.32
2023-11-10T13:12:41.771Z,10.47
2023-11-10T13:15:09.522Z,10.39
2023-11-10T13:17:37.894Z,10.38
2023-11-10T13:20:07.969Z,10.44
2023-11-10T13:22:34.534Z,10.52
2023-11-10T13:25:01.622Z,10.13
2023-11-10T13:27:28.920Z,10.27
2023-11-10T13:29:55.564Z,10.44
2023-11-10T13:32:22.270Z,10.44
2023-11-10T13:34:49.113Z,10.41
2023-11-10T13:37:16.207Z,10.40
2023-11-10T13:39:43.806Z,9.93
2023-11-10T13:42:12.074Z,9.96
2023-11-10T13:44:39.654Z,9.85
2023-11-10T13:47:07.478Z,9.67
2023-11-10T13:49:34.324Z,9.39
2023-11-10T13:52:00.893Z,9.37
2023-11-10T13:54:31.089Z,9.23
2023-11-10T13:56:59.337Z,9.47
2023-11-10T13:59:26.151Z,9.60
2023-11-10T14:01:52.728Z,9.66
2023-11-10T14:04:20.627Z,9.48
2023-11-10T14:06:48.685Z,9.48
2023-11-10T14:09:16.562Z,9.53
2023-11-10T14:11:43.412Z,9.56
2023-11-10T14:14:11.294Z,9.71
2023-11-10T14:16:38.354Z,9.62
2023-11-10T14:19:07.428Z,9.54
2023-11-10T14:21:34.901Z,9.86
2023-11-10T14:24:01.585Z,9.68
2023-11-10T14:26:28.411Z,9.97
2023-11-10T14:28:55.433Z,10.05
2023-11-10T14:31:22.398Z,10.20
2023-11-10T14:33:49.777Z,10.30
2023-11-10T14:36:20.536Z,10.37
2023-11-10T14:38:56.047Z,10.55
2023-11-10T14:41:25.065Z,10.53
2023-11-10T14:43:52.715Z,10.68
2023-11-10T14:46:20.843Z,10.81
2023-11-10T14:48:48.371Z,10.84
2023-11-10T14:51:27.082Z,10.54
2023-11-10T14:53:53.660Z,10.45
2023-11-10T14:56:20.088Z,10.60
2023-11-10T14:58:48.182Z,10.62
2023-11-10T15:01:15.683Z,10.67
2023-11-10T15:03:48.112Z,10.50
2023-11-10T15:06:17.492Z,10.54
2023-11-10T15:08:44.268Z,10.58
2023-11-10T15:11:10.770Z,10.51
2023-11-10T15:13:37.350Z,10.52
2023-11-10T15:16:06.144Z,10.54
2023-11-10T15:18:33.023Z,10.46
2023-11-10T15:20:59.881Z,10.48
2023-11-10T15:23:26.408Z,10.55
2023-11-10T15:25:52.998Z,10.59
2023-11-10T15:28:19.518Z,10.44
2023-11-10T15:30:46.380Z,10.46
2023-11-10T15:33:14.905Z,10.40
2023-11-10T15:35:47.137Z,10.44
2023-11-10T15:38:17.392Z,10.52
2023-11-10T15:40:46.612Z,10.58
2023-11-10T15:43:13.641Z,10.56
2023-11-10T15:45:41.554Z,10.35
2023-11-10T15:48:08.985Z,10.48
2023-11-10T15:50:36.105Z,10.33
2023-11-10T15:53:02.598Z,10.37
2023-11-10T15:55:29.081Z,10.31
2023-11-10T15:57:55.772Z,10.34
2023-11-10T16:00:22.596Z,10.44
2023-11-10T16:02:50.119Z,10.41
2023-11-10T16:05:18.826Z,10.49
2023-11-10T16:07:45.770Z,10.35
2023-11-10T16:10:12.636Z,10.27
2023-11-10T16:12:39.934Z,9.70
2023-11-10T16:15:09.024Z,9.73
2023-11-10T16:17:36.375Z,9.70
2023-11-10T16:20:04.740Z,9.56
2023-11-10T16:22:32.780Z,9.60
2023-11-10T16:24:59.956Z,9.54
2023-11-10T16:27:29.176Z,9.06
2023-11-10T16:29:56.358Z,9.08
2023-11-10T16:32:29.451Z,9.22
2023-11-10T16:34:56.779Z,9.01
2023-11-10T16:37:23.713Z,9.25
2023-11-10T16:39:51.207Z,9.32
2023-11-10T16:42:17.866Z,9.60
2023-11-10T16:44:44.314Z,9.81
2023-11-10T16:47:11.280Z,9.73
2023-11-10T16:49:37.829Z,9.66
2023-11-10T16:52:05.637Z,9.66
2023-11-10T16:54:34.602Z,9.72
2023-11-10T16:57:01.873Z,9.79
2023-11-10T16:59:28.907Z,9.74
2023-11-10T17:01:57.506Z,9.84
2023-11-10T17:04:24.616Z,9.97
2023-11-10T17:06:51.262Z,9.81
2023-11-10T17:09:17.750Z,9.53
2023-11-10T17:11:44.373Z,8.97
2023-11-10T17:14:11.062Z,8.63
2023-11-10T17:16:37.754Z,8.71
2023-11-10T17:19:04.434Z,8.56
2023-11-10T17:21:31.618Z,8.56
2023-11-10T17:23:58.653Z,8.83
2023-11-10T17:26:25.812Z,8.73
2023-11-10T17:28:52.549Z,8.67
2023-11-10T17:31:19.758Z,8.80
2023-11-10T17:33:47.168Z,8.77
2023-11-10T17:36:13.746Z,8.79
2023-11-10T17:38:41.409Z,8.82
2023-11-10T17:41:09.877Z,9.02
2023-11-10T17:43:37.205Z,8.91
2023-11-10T17:46:04.516Z,9.19
2023-11-10T17:48:31.387Z,8.95
2023-11-10T17:51:04.076Z,9.05
2023-11-10T17:53:36.760Z,9.24
2023-11-10T17:56:04.602Z,9.24
2023-11-10T17:58:32.328Z,9.42
2023-11-10T18:00:59.889Z,9.62
2023-11-10T18:03:26.448Z,9.60
2023-11-10T18:05:53.258Z,9.69
2023-11-10T18:08:19.741Z,9.53
2023-11-10T18:10:48.008Z,9.60
2023-11-10T18:13:14.633Z,9.62
2023-11-10T18:15:41.653Z,9.69
2023-11-10T18:18:08.233Z,9.76
2023-11-10T18:20:36.009Z,9.62
2023-11-10T18:23:02.800Z,9.40
2023-11-10T18:25:29.515Z,9.53
2023-11-10T18:27:56.107Z,9.43
2023-11-10T18:30:23.233Z,9.63
2023-11-10T18:32:50.350Z,9.67
2023-11-10T18:35:18.757Z,9.32
2023-11-10T18:37:45.488Z,9.41
2023-11-10T18:40:12.413Z,8.83
2023-11-10T18:42:45.095Z,8.55
2023-11-10T18:45:14.989Z,8.88
2023-11-10T18:47:42.202Z,9.06
2023-11-10T18:50:10.130Z,9.07
2023-11-10T18:52:37.030Z,9.25
2023-11-10T18:55:04.384Z,9.36
2023-11-10T18:57:31.940Z,9.51
2023-11-10T18:59:59.069Z,9.47
2023-11-10T19:02:25.867Z,9.52
2023-11-10T19:04:52.623Z,9.57
2023-11-10T19:07:19.272Z,9.52
2023-11-10T19:09:48.324Z,9.57
2023-11-10T19:12:16.010Z,9.63
2023-11-10T19:14:46.534Z,9.60
2023-11-10T19:17:14.859Z,9.63
2023-11-10T19:19:43.522Z,9.59
2023-11-10T19:22:10.710Z,9.54
2023-11-10T19:24:37.356Z,9.68
2023-11-10T19:27:04.187Z,9.71
2023-11-10T19:29:31.338Z,9.74
2023-11-10T19:31:58.735Z,9.63
2023-11-10T19:34:25.492Z,9.33
2023-11-10T19:36:54.212Z,9.41
2023-11-10T19:39:20.709Z,9.56
2023-11-10T19:41:47.124Z,9.57
2023-11-10T19:44:15.258Z,9.64
2023-11-10T19:46:42.663Z,9.73
2023-11-10T19:49:10.977Z,9.70
2023-11-10T19:56:47.927Z,9.73
2023-11-10T20:01:45.153Z,9.64
2023-11-10T20:04:14.283Z,9.66
2023-11-10T20:06:41.547Z,9.61
2023-11-10T20:09:08.500Z,9.59
2023-11-10T20:11:35.089Z,9.15
2023-11-10T20:14:01.644Z,8.92
2023-11-10T20:16:28.264Z,8.94
2023-11-10T20:18:54.820Z,8.48
2023-11-10T20:21:24.239Z,8.45
2023-11-10T20:23:50.786Z,8.21
2023-11-10T20:26:17.355Z,8.07
2023-11-10T20:28:43.869Z,7.85
2023-11-10T20:31:10.437Z,8.00
2023-11-10T20:33:37.290Z,8.34
2023-11-10T20:36:06.194Z,8.45
2023-11-10T20:38:32.983Z,8.41
2023-11-10T20:40:59.640Z,8.38
2023-11-10T20:43:26.130Z,8.59
2023-11-10T20:45:54.074Z,8.43
2023-11-10T20:48:20.772Z,8.46
2023-11-10T20:50:47.487Z,7.90
2023-11-10T20:53:13.897Z,8.12
2023-11-10T20:55:40.589Z,8.16
2023-11-10T20:58:07.966Z,7.83
2023-11-10T21:00:37.338Z,7.79
2023-11-10T21:03:04.631Z,7.62
2023-11-10T21:05:34.005Z,7.68
2023-11-10T21:08:00.519Z,7.69
2023-11-10T21:10:27.127Z,7.65
2023-11-10T21:12:56.113Z,7.72
2023-11-10T21:15:27.218Z,7.66
2023-11-10T21:17:57.082Z,7.68
2023-11-10T21:20:23.662Z,7.68
2023-11-10T21:22:50.358Z,7.61
2023-11-10T21:25:16.866Z,7.57
2023-11-10T21:27:43.547Z,7.71
2023-11-10T21:30:10.633Z,7.71
2023-11-10T21:32:38.736Z,7.65
2023-11-10T21:35:06.799Z,7.69
2023-11-10T21:37:33.718Z,7.63
2023-11-10T21:40:00.926Z,7.56
2023-11-10T21:42:28.153Z,7.69
2023-11-10T21:44:54.614Z,7.57
2023-11-10T21:47:21.118Z,7.81
2023-11-10T21:49:50.307Z,8.08
2023-11-10T21:52:16.875Z,8.05
2023-11-10T21:54:45.995Z,8.17
2023-11-10T21:57:12.558Z,8.17
2023-11-10T21:59:40.002Z,8.38
2023-11-10T22:02:06.833Z,8.46
2023-11-10T22:04:33.473Z,8.72
2023-11-10T22:07:00.727Z,8.92
2023-11-10T22:09:27.345Z,9.06
2023-11-10T22:11:53.777Z,9.04
2023-11-10T22:14:22.034Z,8.93
2023-11-10T22:16:48.633Z,8.92
2023-11-10T22:19:15.043Z,9.13
2023-11-10T22:21:46.188Z,9.09
2023-11-10T22:24:12.817Z,8.91
2023-11-10T22:26:40.102Z,8.73
2023-11-10T22:29:06.814Z,9.00
2023-11-10T22:31:33.403Z,8.93
2023-11-10T22:33:59.958Z,8.99
2023-11-10T22:36:26.455Z,9.01
2023-11-10T22:38:52.938Z,8.91
2023-11-10T22:41:19.432Z,8.75
2023-11-10T22:43:46.281Z,8.73
2023-11-10T22:46:14.986Z,8.77
2023-11-10T22:48:42.100Z,8.72
2023-11-10T22:51:09.433Z,8.61
2023-11-10T22:53:37.179Z,8.46
2023-11-10T22:56:04.845Z,8.24
2023-11-10T22:58:31.345Z,8.31
2023-11-10T23:00:58.141Z,8.35
2023-11-10T23:03:24.758Z,8.17
2023-11-10T23:05:51.184Z,7.97
2023-11-10T23:08:17.743Z,8.03
2023-11-10T23:10:46.016Z,8.19
2023-11-10T23:13:13.216Z,8.23
2023-11-10T23:15:39.950Z,8.30
2023-11-10T23:18:06.693Z,8.41
2023-11-10T23:20:34.877Z,8.47
2023-11-10T23:23:03.818Z,8.59
2023-11-10T23:25:30.766Z,8.68
2023-11-10T23:27:57.770Z,8.90
2023-11-10T23:30:24.354Z,8.90
2023-11-10T23:32:52.418Z,8.41
2023-11-10T23:35:19.090Z,8.40
2023-11-10T23:37:45.545Z,8.39
2023-11-10T23:40:12.292Z,8.47
2023-11-10T23:42:39.132Z,8.53
2023-11-10T23:45:06.529Z,8.29
2023-11-10T23:47:33.185Z,8.21
2023-11-10T23:49:59.736Z,8.10
2023-11-10T23:52:26.292Z,7.93
2023-11-10T23:54:53.363Z,7.82
2023-11-10T23:57:20.132Z,7.86
2023-11-10T23:59:47.065Z,7.97
